sensor_id;sensor_type;location;lat;lon;timestamp;pressure;altitude;pressure_sealevel;temperature;humidity
56689;BME280;42565;53.342;-1.534;2023-10-08T00:01:38;99729.17;;;19.30;66.83
56689;BME280;42565;53.342;-1.534;2023-10-08T00:04:05;99731.93;;;19.24;67.50
56689;BME280;42565;53.342;-1.534;2023-10-08T00:06:32;99731.38;;;19.25;66.77
56689;BME280;42565;53.342;-1.534;2023-10-08T00:09:00;99724.20;;;18.90;66.64
56689;BME280;42565;53.342;-1.534;2023-10-08T00:11:27;99722.08;;;19.36;67.18
56689;BME280;42565;53.342;-1.534;2023-10-08T00:13:56;99717.07;;;18.99;66.60
56689;BME280;42565;53.342;-1.534;2023-10-08T00:16:23;99721.18;;;18.77;67.96
56689;BME280;42565;53.342;-1.534;2023-10-08T00:18:50;99731.28;;;18.97;67.19
56689;BME280;42565;53.342;-1.534;2023-10-08T00:21:18;99729.52;;;18.77;68.52
56689;BME280;42565;53.342;-1.534;2023-10-08T00:23:46;99729.97;;;18.80;68.85
56689;BME280;42565;53.342;-1.534;2023-10-08T00:26:13;99728.57;;;18.74;68.37
56689;BME280;42565;53.342;-1.534;2023-10-08T00:28:41;99737.48;;;18.54;68.37
56689;BME280;42565;53.342;-1.534;2023-10-08T00:31:07;99737.22;;;19.00;68.00
56689;BME280;42565;53.342;-1.534;2023-10-08T00:33:34;99746.81;;;19.12;67.76
56689;BME280;42565;53.342;-1.534;2023-10-08T00:36:06;99762.25;;;18.52;68.66
56689;BME280;42565;53.342;-1.534;2023-10-08T00:38:32;99769.82;;;18.89;68.01
56689;BME280;42565;53.342;-1.534;2023-10-08T00:41:00;99775.89;;;18.89;68.32
56689;BME280;42565;53.342;-1.534;2023-10-08T00:43:30;99779.96;;;18.71;68.37
56689;BME280;42565;53.342;-1.534;2023-10-08T00:45:57;99784.27;;;18.44;68.62
56689;BME280;42565;53.342;-1.534;2023-10-08T00:48:24;99795.63;;;18.36;69.24
56689;BME280;42565;53.342;-1.534;2023-10-08T00:50:51;99800.81;;;19.03;68.11
56689;BME280;42565;53.342;-1.534;2023-10-08T00:53:29;99807.98;;;18.80;68.25
56689;BME280;42565;53.342;-1.534;2023-10-08T00:55:56;99811.28;;;18.65;68.06
56689;BME280;42565;53.342;-1.534;2023-10-08T00:58:23;99806.41;;;18.66;68.43
56689;BME280;42565;53.342;-1.534;2023-10-08T01:00:51;99803.16;;;18.76;68.63
56689;BME280;42565;53.342;-1.534;2023-10-08T01:03:18;99799.17;;;18.81;68.90
56689;BME280;42565;53.342;-1.534;2023-10-08T01:05:52;99800.98;;;18.77;68.90
56689;BME280;42565;53.342;-1.534;2023-10-08T01:08:20;99802.42;;;18.60;68.17
56689;BME280;42565;53.342;-1.534;2023-10-08T01:10:47;99799.41;;;19.07;68.21
56689;BME280;42565;53.342;-1.534;2023-10-08T01:13:20;99796.01;;;18.55;68.81
56689;BME280;42565;53.342;-1.534;2023-10-08T01:15:47;99797.36;;;18.43;69.75
56689;BME280;42565;53.342;-1.534;2023-10-08T01:18:14;99799.28;;;18.41;69.75
56689;BME280;42565;53.342;-1.534;2023-10-08T01:20:40;99800.81;;;18.66;69.10
56689;BME280;42565;53.342;-1.534;2023-10-08T01:23:08;99804.42;;;18.09;70.54
56689;BME280;42565;53.342;-1.534;2023-10-08T01:25:37;99807.03;;;18.76;68.64
56689;BME280;42565;53.342;-1.534;2023-10-08T01:28:05;99810.44;;;18.41;68.87
56689;BME280;42565;53.342;-1.534;2023-10-08T01:30:33;99807.49;;;18.53;69.14
56689;BME280;42565;53.342;-1.534;2023-10-08T01:33:01;99803.37;;;18.27;70.06
56689;BME280;42565;53.342;-1.534;2023-10-08T01:35:28;99799.18;;;17.88;70.48
56689;BME280;42565;53.342;-1.534;2023-10-08T01:37:55;99790.03;;;18.08;70.75
56689;BME280;42565;53.342;-1.534;2023-10-08T01:40:22;99782.51;;;18.46;69.63
56689;BME280;42565;53.342;-1.534;2023-10-08T01:42:51;99785.55;;;18.49;69.47
56689;BME280;42565;53.342;-1.534;2023-10-08T01:45:18;99787.13;;;18.16;70.31
56689;BME280;42565;53.342;-1.534;2023-10-08T01:47:45;99783.88;;;18.57;70.69
56689;BME280;42565;53.342;-1.534;2023-10-08T01:50:12;99787.25;;;17.64;71.72
56689;BME280;42565;53.342;-1.534;2023-10-08T01:52:39;99784.92;;;18.12;70.81
56689;BME280;42565;53.342;-1.534;2023-10-08T01:55:07;99796.50;;;17.85;71.40
56689;BME280;42565;53.342;-1.534;2023-10-08T01:57:34;99798.93;;;18.62;70.97
56689;BME280;42565;53.342;-1.534;2023-10-08T02:00:02;99800.73;;;18.02;70.59
56689;BME280;42565;53.342;-1.534;2023-10-08T02:02:32;99797.31;;;17.90;70.83
56689;BME280;42565;53.342;-1.534;2023-10-08T02:04:59;99801.00;;;17.93;70.96
56689;BME280;42565;53.342;-1.534;2023-10-08T02:07:27;99798.30;;;18.26;70.70
56689;BME280;42565;53.342;-1.534;2023-10-08T02:09:55;99797.50;;;17.90;71.61
56689;BME280;42565;53.342;-1.534;2023-10-08T02:12:22;99795.88;;;18.15;71.16
56689;BME280;42565;53.342;-1.534;2023-10-08T02:14:56;99794.07;;;17.94;71.69
56689;BME280;42565;53.342;-1.534;2023-10-08T02:17:23;99790.72;;;17.83;72.10
56689;BME280;42565;53.342;-1.534;2023-10-08T02:19:55;99790.46;;;17.93;72.50
56689;BME280;42565;53.342;-1.534;2023-10-08T02:22:22;99792.58;;;17.83;71.59
56689;BME280;42565;53.342;-1.534;2023-10-08T02:24:49;99784.57;;;18.23;69.95
56689;BME280;42565;53.342;-1.534;2023-10-08T02:27:17;99785.32;;;18.26;69.91
56689;BME280;42565;53.342;-1.534;2023-10-08T02:29:44;99785.22;;;18.14;70.74
56689;BME280;42565;53.342;-1.534;2023-10-08T02:32:11;99780.03;;;17.98;71.30
56689;BME280;42565;53.342;-1.534;2023-10-08T02:34:39;99778.17;;;17.86;71.94
56689;BME280;42565;53.342;-1.534;2023-10-08T02:37:06;99776.38;;;17.28;72.60
56689;BME280;42565;53.342;-1.534;2023-10-08T02:39:34;99779.01;;;17.54;73.44
56689;BME280;42565;53.342;-1.534;2023-10-08T02:42:06;99780.85;;;17.74;73.01
56689;BME280;42565;53.342;-1.534;2023-10-08T02:44:33;99779.00;;;17.49;73.96
56689;BME280;42565;53.342;-1.534;2023-10-08T02:47:00;99780.99;;;17.76;72.41
56689;BME280;42565;53.342;-1.534;2023-10-08T02:49:27;99781.82;;;18.22;71.53
56689;BME280;42565;53.342;-1.534;2023-10-08T02:51:55;99782.51;;;17.73;71.87
56689;BME280;42565;53.342;-1.534;2023-10-08T02:54:23;99782.42;;;17.79;72.64
56689;BME280;42565;53.342;-1.534;2023-10-08T02:56:51;99783.97;;;17.43;73.76
56689;BME280;42565;53.342;-1.534;2023-10-08T02:59:18;99785.44;;;17.71;73.13
56689;BME280;42565;53.342;-1.534;2023-10-08T03:01:51;99786.41;;;17.55;73.62
56689;BME280;42565;53.342;-1.534;2023-10-08T03:04:18;99788.91;;;17.48;73.20
56689;BME280;42565;53.342;-1.534;2023-10-08T03:06:51;99791.88;;;17.63;73.24
56689;BME280;42565;53.342;-1.534;2023-10-08T03:09:19;99791.17;;;17.68;73.16
56689;BME280;42565;53.342;-1.534;2023-10-08T03:11:46;99798.44;;;17.64;72.45
56689;BME280;42565;53.342;-1.534;2023-10-08T03:14:14;99804.36;;;17.38;73.72
56689;BME280;42565;53.342;-1.534;2023-10-08T03:16:42;99796.39;;;17.70;73.18
56689;BME280;42565;53.342;-1.534;2023-10-08T03:19:09;99792.19;;;17.68;72.14
56689;BME280;42565;53.342;-1.534;2023-10-08T03:21:36;99797.14;;;17.88;71.49
56689;BME280;42565;53.342;-1.534;2023-10-08T03:24:04;99800.13;;;17.80;71.56
56689;BME280;42565;53.342;-1.534;2023-10-08T03:26:31;99799.06;;;17.50;73.02
56689;BME280;42565;53.342;-1.534;2023-10-08T03:29:00;99800.74;;;17.31;73.70
56689;BME280;42565;53.342;-1.534;2023-10-08T03:31:28;99803.29;;;16.95;74.71
56689;BME280;42565;53.342;-1.534;2023-10-08T03:33:56;99804.92;;;17.46;73.19
56689;BME280;42565;53.342;-1.534;2023-10-08T03:36:22;99802.41;;;17.57;72.91
56689;BME280;42565;53.342;-1.534;2023-10-08T03:38:49;99802.53;;;16.97;74.74
56689;BME280;42565;53.342;-1.534;2023-10-08T03:41:18;99804.91;;;17.23;74.06
56689;BME280;42565;53.342;-1.534;2023-10-08T03:43:48;99811.39;;;17.12;74.55
56689;BME280;42565;53.342;-1.534;2023-10-08T03:46:20;99812.36;;;17.40;73.82
56689;BME280;42565;53.342;-1.534;2023-10-08T03:48:51;99807.85;;;17.72;72.93
56689;BME280;42565;53.342;-1.534;2023-10-08T03:51:18;99804.71;;;17.65;73.09
56689;BME280;42565;53.342;-1.534;2023-10-08T03:53:46;99799.47;;;17.73;73.34
56689;BME280;42565;53.342;-1.534;2023-10-08T03:56:13;99794.91;;;17.51;73.64
56689;BME280;42565;53.342;-1.534;2023-10-08T03:58:40;99792.54;;;17.67;73.74
56689;BME280;42565;53.342;-1.534;2023-10-08T04:01:07;99801.42;;;17.72;73.76
56689;BME280;42565;53.342;-1.534;2023-10-08T04:03:34;99806.38;;;17.84;72.94
56689;BME280;42565;53.342;-1.534;2023-10-08T04:06:01;99802.06;;;18.00;72.59
56689;BME280;42565;53.342;-1.534;2023-10-08T04:08:29;99804.93;;;17.91;72.95
56689;BME280;42565;53.342;-1.534;2023-10-08T04:10:56;99802.82;;;17.78;73.43
56689;BME280;42565;53.342;-1.534;2023-10-08T04:13:23;99804.22;;;17.55;74.89
56689;BME280;42565;53.342;-1.534;2023-10-08T04:15:55;99805.28;;;17.83;74.26
56689;BME280;42565;53.342;-1.534;2023-10-08T04:18:22;99809.51;;;17.60;72.08
56689;BME280;42565;53.342;-1.534;2023-10-08T04:21:08;99812.60;;;17.89;69.25
56689;BME280;42565;53.342;-1.534;2023-10-08T04:23:37;99813.92;;;17.96;68.65
56689;BME280;42565;53.342;-1.534;2023-10-08T04:26:15;99803.79;;;17.45;68.59
56689;BME280;42565;53.342;-1.534;2023-10-08T04:28:54;99802.49;;;18.57;67.92
56689;BME280;42565;53.342;-1.534;2023-10-08T04:31:21;99811.81;;;18.91;66.93
56689;BME280;42565;53.342;-1.534;2023-10-08T04:33:49;99816.97;;;18.43;68.72
56689;BME280;42565;53.342;-1.534;2023-10-08T04:36:16;99813.03;;;18.48;68.78
56689;BME280;42565;53.342;-1.534;2023-10-08T04:38:44;99808.35;;;18.07;70.65
56689;BME280;42565;53.342;-1.534;2023-10-08T04:41:11;99810.39;;;18.19;71.38
56689;BME280;42565;53.342;-1.534;2023-10-08T04:43:38;99810.68;;;18.35;70.83
56689;BME280;42565;53.342;-1.534;2023-10-08T04:46:05;99812.53;;;17.68;73.07
56689;BME280;42565;53.342;-1.534;2023-10-08T04:48:32;99810.28;;;17.84;74.07
56689;BME280;42565;53.342;-1.534;2023-10-08T04:51:00;99809.23;;;17.47;74.69
56689;BME280;42565;53.342;-1.534;2023-10-08T04:53:28;99808.24;;;17.78;74.59
56689;BME280;42565;53.342;-1.534;2023-10-08T04:55:56;99806.86;;;17.34;75.51
56689;BME280;42565;53.342;-1.534;2023-10-08T04:58:24;99802.76;;;17.38;74.68
56689;BME280;42565;53.342;-1.534;2023-10-08T05:00:51;99802.89;;;18.04;74.12
56689;BME280;42565;53.342;-1.534;2023-10-08T05:03:18;99797.87;;;18.16;73.45
56689;BME280;42565;53.342;-1.534;2023-10-08T05:05:46;99789.27;;;17.70;75.05
56689;BME280;42565;53.342;-1.534;2023-10-08T05:08:13;99788.89;;;17.81;74.21
56689;BME280;42565;53.342;-1.534;2023-10-08T05:10:40;99788.08;;;17.71;74.60
56689;BME280;42565;53.342;-1.534;2023-10-08T05:13:07;99788.10;;;18.01;74.33
56689;BME280;42565;53.342;-1.534;2023-10-08T05:15:34;99796.24;;;17.72;75.12
56689;BME280;42565;53.342;-1.534;2023-10-08T05:18:02;99807.53;;;17.27;75.29
56689;BME280;42565;53.342;-1.534;2023-10-08T05:20:29;99808.11;;;17.32;76.79
56689;BME280;42565;53.342;-1.534;2023-10-08T05:23:01;99814.76;;;17.49;76.29
56689;BME280;42565;53.342;-1.534;2023-10-08T05:25:33;99807.35;;;17.15;76.94
56689;BME280;42565;53.342;-1.534;2023-10-08T05:28:01;99809.24;;;16.79;77.61
56689;BME280;42565;53.342;-1.534;2023-10-08T05:30:30;99808.07;;;17.16;77.14
56689;BME280;42565;53.342;-1.534;2023-10-08T05:32:58;99801.59;;;17.88;75.08
56689;BME280;42565;53.342;-1.534;2023-10-08T05:35:25;99795.91;;;17.06;77.83
56689;BME280;42565;53.342;-1.534;2023-10-08T05:37:52;99796.79;;;17.21;76.81
56689;BME280;42565;53.342;-1.534;2023-10-08T05:40:19;99786.95;;;17.34;76.46
56689;BME280;42565;53.342;-1.534;2023-10-08T05:42:47;99782.38;;;17.73;75.79
56689;BME280;42565;53.342;-1.534;2023-10-08T05:45:13;99783.88;;;17.65;75.74
56689;BME280;42565;53.342;-1.534;2023-10-08T05:47:40;99793.36;;;17.35;76.86
56689;BME280;42565;53.342;-1.534;2023-10-08T05:50:08;99789.03;;;17.36;76.78
56689;BME280;42565;53.342;-1.534;2023-10-08T05:52:36;99790.81;;;16.71;77.29
56689;BME280;42565;53.342;-1.534;2023-10-08T05:55:03;99786.63;;;17.11;76.91
56689;BME280;42565;53.342;-1.534;2023-10-08T05:57:30;99778.97;;;17.13;77.39
56689;BME280;42565;53.342;-1.534;2023-10-08T05:59:58;99771.20;;;17.34;77.11
56689;BME280;42565;53.342;-1.534;2023-10-08T06:02:32;99774.76;;;17.61;76.13
56689;BME280;42565;53.342;-1.534;2023-10-08T06:05:00;99780.65;;;17.54;76.08
56689;BME280;42565;53.342;-1.534;2023-10-08T06:07:32;99784.21;;;17.17;77.23
56689;BME280;42565;53.342;-1.534;2023-10-08T06:10:06;99790.81;;;17.05;77.63
56689;BME280;42565;53.342;-1.534;2023-10-08T06:12:34;99795.06;;;17.01;77.84
56689;BME280;42565;53.342;-1.534;2023-10-08T06:15:07;99796.53;;;17.28;76.44
56689;BME280;42565;53.342;-1.534;2023-10-08T06:17:35;99796.21;;;16.98;77.83
56689;BME280;42565;53.342;-1.534;2023-10-08T06:20:02;99793.00;;;16.71;78.21
56689;BME280;42565;53.342;-1.534;2023-10-08T06:22:30;99790.66;;;15.95;81.58
56689;BME280;42565;53.342;-1.534;2023-10-08T06:24:57;99789.77;;;16.63;81.84
56689;BME280;42565;53.342;-1.534;2023-10-08T06:27:25;99793.06;;;16.67;81.11
56689;BME280;42565;53.342;-1.534;2023-10-08T06:29:52;99791.08;;;16.53;80.79
56689;BME280;42565;53.342;-1.534;2023-10-08T06:32:19;99785.21;;;16.53;79.97
56689;BME280;42565;53.342;-1.534;2023-10-08T06:34:46;99787.69;;;17.02;78.43
56689;BME280;42565;53.342;-1.534;2023-10-08T06:37:13;99794.01;;;16.73;78.36
56689;BME280;42565;53.342;-1.534;2023-10-08T06:39:40;99798.46;;;16.73;79.16
56689;BME280;42565;53.342;-1.534;2023-10-08T06:42:07;99799.12;;;16.72;79.05
56689;BME280;42565;53.342;-1.534;2023-10-08T06:44:34;99790.35;;;16.50;80.15
56689;BME280;42565;53.342;-1.534;2023-10-08T06:47:01;99792.45;;;16.48;80.36
56689;BME280;42565;53.342;-1.534;2023-10-08T06:49:28;99793.04;;;16.71;79.59
56689;BME280;42565;53.342;-1.534;2023-10-08T06:51:56;99794.24;;;16.88;79.03
56689;BME280;42565;53.342;-1.534;2023-10-08T06:54:23;99779.10;;;16.73;80.11
56689;BME280;42565;53.342;-1.534;2023-10-08T06:56:49;99773.56;;;16.31;81.69
56689;BME280;42565;53.342;-1.534;2023-10-08T06:59:16;99772.40;;;15.51;85.45
56689;BME280;42565;53.342;-1.534;2023-10-08T07:01:43;99769.19;;;15.87;85.14
56689;BME280;42565;53.342;-1.534;2023-10-08T07:04:10;99765.51;;;15.73;84.51
56689;BME280;42565;53.342;-1.534;2023-10-08T07:06:38;99767.77;;;16.04;86.68
56689;BME280;42565;53.342;-1.534;2023-10-08T07:09:06;99770.44;;;15.22;89.10
56689;BME280;42565;53.342;-1.534;2023-10-08T07:11:34;99775.70;;;15.36;88.80
56689;BME280;42565;53.342;-1.534;2023-10-08T07:14:02;99774.90;;;15.00;89.05
56689;BME280;42565;53.342;-1.534;2023-10-08T07:16:29;99778.24;;;15.02;91.12
56689;BME280;42565;53.342;-1.534;2023-10-08T07:18:57;99781.43;;;14.49;96.02
56689;BME280;42565;53.342;-1.534;2023-10-08T07:21:25;99781.19;;;14.26;97.93
56689;BME280;42565;53.342;-1.534;2023-10-08T07:23:53;99786.34;;;13.77;99.71
56689;BME280;42565;53.342;-1.534;2023-10-08T07:26:26;99789.67;;;14.41;96.66
56689;BME280;42565;53.342;-1.534;2023-10-08T07:28:54;99788.98;;;14.38;96.71
56689;BME280;42565;53.342;-1.534;2023-10-08T07:31:26;99791.33;;;14.10;96.67
56689;BME280;42565;53.342;-1.534;2023-10-08T07:33:54;99798.60;;;14.31;95.93
56689;BME280;42565;53.342;-1.534;2023-10-08T07:36:21;99807.84;;;14.71;94.44
56689;BME280;42565;53.342;-1.534;2023-10-08T07:38:54;99812.28;;;15.03;91.84
56689;BME280;42565;53.342;-1.534;2023-10-08T07:41:26;99817.11;;;15.55;89.48
56689;BME280;42565;53.342;-1.534;2023-10-08T07:43:53;99811.16;;;15.52;88.27
56689;BME280;42565;53.342;-1.534;2023-10-08T07:46:20;99814.39;;;14.53;94.09
56689;BME280;42565;53.342;-1.534;2023-10-08T07:48:47;99809.50;;;14.75;92.35
56689;BME280;42565;53.342;-1.534;2023-10-08T07:51:14;99816.98;;;14.89;91.78
56689;BME280;42565;53.342;-1.534;2023-10-08T07:53:41;99822.97;;;15.77;88.17
56689;BME280;42565;53.342;-1.534;2023-10-08T07:56:08;99813.32;;;15.53;89.24
56689;BME280;42565;53.342;-1.534;2023-10-08T07:58:37;99805.25;;;15.29;89.75
56689;BME280;42565;53.342;-1.534;2023-10-08T08:01:05;99808.20;;;14.53;93.62
56689;BME280;42565;53.342;-1.534;2023-10-08T08:03:33;99805.78;;;15.07;92.84
56689;BME280;42565;53.342;-1.534;2023-10-08T08:06:01;99800.15;;;15.27;90.93
56689;BME280;42565;53.342;-1.534;2023-10-08T08:08:28;99797.82;;;14.94;92.90
56689;BME280;42565;53.342;-1.534;2023-10-08T08:10:55;99799.76;;;14.64;93.49
56689;BME280;42565;53.342;-1.534;2023-10-08T08:13:22;99797.86;;;14.84;91.56
56689;BME280;42565;53.342;-1.534;2023-10-08T08:15:50;99796.41;;;15.37;89.58
56689;BME280;42565;53.342;-1.534;2023-10-08T08:18:17;99794.91;;;15.57;90.14
56689;BME280;42565;53.342;-1.534;2023-10-08T08:20:44;99790.69;;;15.36;90.24
56689;BME280;42565;53.342;-1.534;2023-10-08T08:23:11;99791.00;;;15.03;91.60
56689;BME280;42565;53.342;-1.534;2023-10-08T08:25:44;99788.86;;;15.26;91.07
56689;BME280;42565;53.342;-1.534;2023-10-08T08:28:13;99793.24;;;15.10;91.22
56689;BME280;42565;53.342;-1.534;2023-10-08T08:30:40;99794.56;;;15.09;91.39
56689;BME280;42565;53.342;-1.534;2023-10-08T08:33:07;99797.32;;;15.52;89.21
56689;BME280;42565;53.342;-1.534;2023-10-08T08:35:35;99799.68;;;15.39;89.77
56689;BME280;42565;53.342;-1.534;2023-10-08T08:38:02;99800.00;;;15.93;88.00
56689;BME280;42565;53.342;-1.534;2023-10-08T08:40:30;99799.02;;;15.42;89.43
56689;BME280;42565;53.342;-1.534;2023-10-08T08:42:57;99805.76;;;15.25;91.22
56689;BME280;42565;53.342;-1.534;2023-10-08T08:45:30;99810.01;;;15.03;92.88
56689;BME280;42565;53.342;-1.534;2023-10-08T08:47:58;99808.60;;;15.99;89.51
56689;BME280;42565;53.342;-1.534;2023-10-08T08:50:25;99808.58;;;15.73;88.79
56689;BME280;42565;53.342;-1.534;2023-10-08T08:52:52;99805.35;;;15.81;87.84
56689;BME280;42565;53.342;-1.534;2023-10-08T08:55:19;99808.42;;;16.51;87.32
56689;BME280;42565;53.342;-1.534;2023-10-08T08:57:48;99805.82;;;16.30;85.17
56689;BME280;42565;53.342;-1.534;2023-10-08T09:00:21;99804.19;;;16.32;84.79
56689;BME280;42565;53.342;-1.534;2023-10-08T09:02:49;99806.26;;;16.52;84.88
56689;BME280;42565;53.342;-1.534;2023-10-08T09:05:16;99807.37;;;16.10;85.20
56689;BME280;42565;53.342;-1.534;2023-10-08T09:07:54;99808.15;;;16.86;83.27
56689;BME280;42565;53.342;-1.534;2023-10-08T09:10:22;99813.66;;;16.79;83.05
56689;BME280;42565;53.342;-1.534;2023-10-08T09:12:50;99822.78;;;17.15;82.12
56689;BME280;42565;53.342;-1.534;2023-10-08T09:15:17;99829.82;;;16.91;81.19
56689;BME280;42565;53.342;-1.534;2023-10-08T09:17:45;99836.04;;;16.86;82.59
56689;BME280;42565;53.342;-1.534;2023-10-08T09:20:12;99841.38;;;17.20;80.78
56689;BME280;42565;53.342;-1.534;2023-10-08T09:22:40;99833.29;;;16.74;82.35
56689;BME280;42565;53.342;-1.534;2023-10-08T09:25:07;99819.28;;;16.71;82.80
56689;BME280;42565;53.342;-1.534;2023-10-08T09:27:42;99811.36;;;16.25;84.75
56689;BME280;42565;53.342;-1.534;2023-10-08T09:30:09;99803.44;;;16.20;85.42
56689;BME280;42565;53.342;-1.534;2023-10-08T09:32:39;99805.23;;;16.42;86.10
56689;BME280;42565;53.342;-1.534;2023-10-08T09:35:07;99802.80;;;15.96;89.14
56689;BME280;42565;53.342;-1.534;2023-10-08T09:37:36;99796.29;;;15.94;88.46
56689;BME280;42565;53.342;-1.534;2023-10-08T09:40:07;99791.70;;;15.52;90.44
56689;BME280;42565;53.342;-1.534;2023-10-08T09:42:35;99787.58;;;16.18;87.94
56689;BME280;42565;53.342;-1.534;2023-10-08T09:45:06;99791.45;;;15.48;91.18
56689;BME280;42565;53.342;-1.534;2023-10-08T09:47:36;99785.19;;;15.61;91.24
56689;BME280;42565;53.342;-1.534;2023-10-08T09:50:06;99784.75;;;14.90;94.06
56689;BME280;42565;53.342;-1.534;2023-10-08T09:52:37;99783.10;;;15.60;92.13
56689;BME280;42565;53.342;-1.534;2023-10-08T09:55:09;99792.32;;;15.90;90.21
56689;BME280;42565;53.342;-1.534;2023-10-08T09:57:41;99795.52;;;16.88;87.24
56689;BME280;42565;53.342;-1.534;2023-10-08T10:00:09;99809.60;;;17.22;83.78
56689;BME280;42565;53.342;-1.534;2023-10-08T10:02:37;99800.50;;;17.52;81.55
56689;BME280;42565;53.342;-1.534;2023-10-08T10:05:05;99813.76;;;17.80;79.23
56689;BME280;42565;53.342;-1.534;2023-10-08T10:07:33;99809.70;;;17.85;79.82
56689;BME280;42565;53.342;-1.534;2023-10-08T10:10:02;99812.40;;;17.85;80.16
56689;BME280;42565;53.342;-1.534;2023-10-08T10:12:34;99812.69;;;18.00;80.45
56689;BME280;42565;53.342;-1.534;2023-10-08T10:15:01;99816.99;;;18.20;79.09
56689;BME280;42565;53.342;-1.534;2023-10-08T10:17:29;99811.59;;;18.30;79.14
56689;BME280;42565;53.342;-1.534;2023-10-08T10:19:57;99809.79;;;17.76;81.37
56689;BME280;42565;53.342;-1.534;2023-10-08T10:22:28;99815.33;;;17.42;82.90
56689;BME280;42565;53.342;-1.534;2023-10-08T10:24:57;99817.26;;;17.28;85.09
56689;BME280;42565;53.342;-1.534;2023-10-08T10:27:24;99814.93;;;16.84;86.42
56689;BME280;42565;53.342;-1.534;2023-10-08T10:29:51;99817.09;;;16.66;86.45
56689;BME280;42565;53.342;-1.534;2023-10-08T10:32:22;99819.07;;;16.95;85.23
56689;BME280;42565;53.342;-1.534;2023-10-08T10:34:49;99812.08;;;16.94;84.83
56689;BME280;42565;53.342;-1.534;2023-10-08T10:37:19;99796.53;;;16.80;84.15
56689;BME280;42565;53.342;-1.534;2023-10-08T10:39:55;99793.62;;;17.38;82.75
56689;BME280;42565;53.342;-1.534;2023-10-08T10:42:22;99792.91;;;17.04;82.28
56689;BME280;42565;53.342;-1.534;2023-10-08T10:44:49;99785.02;;;17.89;79.09
56689;BME280;42565;53.342;-1.534;2023-10-08T10:47:17;99782.83;;;17.37;81.27
56689;BME280;42565;53.342;-1.534;2023-10-08T10:49:46;99780.17;;;17.38;79.45
56689;BME280;42565;53.342;-1.534;2023-10-08T10:52:14;99781.27;;;17.26;80.12
56689;BME280;42565;53.342;-1.534;2023-10-08T10:54:47;99776.97;;;17.99;79.04
56689;BME280;42565;53.342;-1.534;2023-10-08T10:57:14;99779.44;;;17.99;77.70
56689;BME280;42565;53.342;-1.534;2023-10-08T10:59:42;99778.84;;;18.17;77.91
56689;BME280;42565;53.342;-1.534;2023-10-08T11:02:09;99773.36;;;17.94;75.76
56689;BME280;42565;53.342;-1.534;2023-10-08T11:04:36;99772.60;;;18.52;73.73
56689;BME280;42565;53.342;-1.534;2023-10-08T11:07:03;99775.94;;;17.61;75.91
56689;BME280;42565;53.342;-1.534;2023-10-08T11:09:30;99772.69;;;18.02;75.24
56689;BME280;42565;53.342;-1.534;2023-10-08T11:11:57;99775.26;;;18.19;74.10
56689;BME280;42565;53.342;-1.534;2023-10-08T11:14:25;99780.78;;;18.65;72.14
56689;BME280;42565;53.342;-1.534;2023-10-08T11:16:52;99781.30;;;18.80;71.25
56689;BME280;42565;53.342;-1.534;2023-10-08T11:19:20;99778.78;;;20.14;67.95
56689;BME280;42565;53.342;-1.534;2023-10-08T11:21:49;99777.80;;;20.57;68.58
56689;BME280;42565;53.342;-1.534;2023-10-08T11:24:27;99769.51;;;20.09;63.42
56689;BME280;42565;53.342;-1.534;2023-10-08T11:26:54;99764.63;;;19.97;64.91
56689;BME280;42565;53.342;-1.534;2023-10-08T11:29:22;99757.80;;;20.51;64.02
56689;BME280;42565;53.342;-1.534;2023-10-08T11:31:51;99749.35;;;20.76;63.08
56689;BME280;42565;53.342;-1.534;2023-10-08T11:34:18;99748.25;;;20.14;64.10
56689;BME280;42565;53.342;-1.534;2023-10-08T11:36:45;99744.75;;;19.88;66.23
56689;BME280;42565;53.342;-1.534;2023-10-08T11:39:12;99746.47;;;20.13;65.27
56689;BME280;42565;53.342;-1.534;2023-10-08T11:41:40;99742.82;;;20.23;62.44
56689;BME280;42565;53.342;-1.534;2023-10-08T11:44:07;99742.92;;;19.96;63.87
56689;BME280;42565;53.342;-1.534;2023-10-08T11:46:34;99734.44;;;20.58;62.54
56689;BME280;42565;53.342;-1.534;2023-10-08T11:49:01;99728.18;;;20.91;61.10
56689;BME280;42565;53.342;-1.534;2023-10-08T11:51:28;99726.91;;;20.85;60.55
56689;BME280;42565;53.342;-1.534;2023-10-08T11:53:55;99725.66;;;20.94;61.48
56689;BME280;42565;53.342;-1.534;2023-10-08T11:56:22;99732.00;;;21.87;57.51
56689;BME280;42565;53.342;-1.534;2023-10-08T11:58:49;99732.05;;;22.30;56.45
56689;BME280;42565;53.342;-1.534;2023-10-08T12:01:17;99730.72;;;22.60;57.95
56689;BME280;42565;53.342;-1.534;2023-10-08T12:03:44;99725.16;;;22.62;55.76
56689;BME280;42565;53.342;-1.534;2023-10-08T12:06:12;99728.31;;;23.22;54.80
56689;BME280;42565;53.342;-1.534;2023-10-08T12:08:39;99727.09;;;22.91;53.99
56689;BME280;42565;53.342;-1.534;2023-10-08T12:11:13;99716.25;;;22.77;54.53
56689;BME280;42565;53.342;-1.534;2023-10-08T12:13:41;99721.75;;;23.01;53.94
56689;BME280;42565;53.342;-1.534;2023-10-08T12:16:08;99728.10;;;23.17;52.37
56689;BME280;42565;53.342;-1.534;2023-10-08T12:18:35;99727.12;;;22.60;53.92
56689;BME280;42565;53.342;-1.534;2023-10-08T12:21:02;99726.93;;;23.22;52.46
56689;BME280;42565;53.342;-1.534;2023-10-08T12:23:35;99724.56;;;22.89;54.05
56689;BME280;42565;53.342;-1.534;2023-10-08T12:26:02;99724.72;;;21.40;57.14
56689;BME280;42565;53.342;-1.534;2023-10-08T12:28:29;99717.47;;;21.67;59.31
56689;BME280;42565;53.342;-1.534;2023-10-08T12:30:57;99716.42;;;21.85;59.82
56689;BME280;42565;53.342;-1.534;2023-10-08T12:33:29;99707.54;;;21.87;60.61
56689;BME280;42565;53.342;-1.534;2023-10-08T12:36:03;99691.20;;;22.07;58.52
56689;BME280;42565;53.342;-1.534;2023-10-08T12:38:36;99683.22;;;22.52;57.00
56689;BME280;42565;53.342;-1.534;2023-10-08T12:41:03;99679.45;;;21.90;57.92
56689;BME280;42565;53.342;-1.534;2023-10-08T12:43:31;99678.03;;;22.26;57.95
56689;BME280;42565;53.342;-1.534;2023-10-08T12:45:59;99677.12;;;22.16;58.37
56689;BME280;42565;53.342;-1.534;2023-10-08T12:48:27;99673.85;;;21.94;58.63
56689;BME280;42565;53.342;-1.534;2023-10-08T12:50:55;99673.56;;;21.88;58.29
56689;BME280;42565;53.342;-1.534;2023-10-08T12:53:24;99681.11;;;21.03;60.94
56689;BME280;42565;53.342;-1.534;2023-10-08T12:55:51;99680.67;;;21.60;60.57